Time;durP1;ratioP1;P1;durP2;ratioP2;P2;SDS_P1;SDS_P2;PMS_P1;PMS_P2;Temp;Humidity;BMP_temperature;BMP_pressure;BME280_temperature;BME280_humidity;BME280_pressure;Samples;Min_cycle;Max_cycle;Signal;HPM_P1;HPM_P2
2022/03/31 00:00:53;;;;;;;60.78;39.30;;;13.60;94.90;;;;;;4975882;28;20027;-39
2022/03/31 00:03:20;;;;;;;46.90;35.60;;;13.70;96.20;;;;;;4975670;28;20031;-39
2022/03/31 00:05:50;;;;;;;46.55;34.80;;;13.60;94.90;;;;;;4974173;28;20026;-39
2022/03/31 00:08:18;;;;;;;52.67;39.20;;;13.50;95.60;;;;;;4975191;28;20057;-40
2022/03/31 00:10:52;;;;;;;52.20;40.03;;;13.50;95.90;;;;;;4975257;28;20514;-39
2022/03/31 00:13:23;;;;;;;55.28;41.67;;;13.70;96.40;;;;;;4976353;28;20390;-39
2022/03/31 00:16:01;;;;;;;61.65;43.17;;;13.70;96.50;;;;;;4975227;28;20110;-39
2022/03/31 00:18:29;;;;;;;58.38;44.25;;;13.60;97.30;;;;;;4976122;28;20523;-39
2022/03/31 00:20:55;;;;;;;61.45;47.03;;;13.60;96.10;;;;;;4975183;28;20077;-39
2022/03/31 00:23:21;;;;;;;60.08;46.45;;;13.70;95.30;;;;;;4975497;28;20026;-39
2022/03/31 00:25:46;;;;;;;64.15;47.35;;;13.70;96.00;;;;;;4974858;28;20041;-39
2022/03/31 00:28:12;;;;;;;64.97;48.35;;;13.60;96.10;;;;;;4975233;28;20034;-39
2022/03/31 00:30:38;;;;;;;63.17;47.50;;;13.60;95.80;;;;;;4973387;28;20042;-39
2022/03/31 00:33:03;;;;;;;67.35;49.53;;;13.60;97.60;;;;;;4975305;28;20393;-39
2022/03/31 00:35:30;;;;;;;73.55;55.25;;;13.60;99.20;;;;;;4973184;28;20049;-39
2022/03/31 00:37:56;;;;;;;77.72;56.85;;;13.60;98.70;;;;;;4975000;28;20045;-39
2022/03/31 00:40:22;;;;;;;76.35;56.15;;;13.60;97.30;;;;;;4974719;28;20027;-39
2022/03/31 00:42:52;;;;;;;75.63;57.92;;;13.80;96.50;;;;;;4975628;28;20023;-39
2022/03/31 00:45:19;;;;;;;63.47;51.47;;;13.70;97.60;;;;;;4974705;28;20031;-40
2022/03/31 00:47:46;;;;;;;64.40;49.42;;;13.70;97.60;;;;;;4973057;28;20046;-39
2022/03/31 00:50:13;;;;;;;67.28;48.00;;;13.70;97.10;;;;;;4974672;28;20054;-39
2022/03/31 00:52:40;;;;;;;63.13;47.35;;;13.70;96.90;;;;;;4975293;28;20125;-39
2022/03/31 00:55:09;;;;;;;58.15;44.35;;;13.70;96.70;;;;;;4973429;28;20065;-39
2022/03/31 00:57:36;;;;;;;60.53;46.65;;;13.70;97.00;;;;;;4956054;29;20056;-39
2022/03/31 01:00:03;;;;;;;58.50;44.65;;;13.70;95.60;;;;;;4956187;29;20046;-39
2022/03/31 01:02:32;;;;;;;61.55;46.85;;;13.60;96.50;;;;;;4974887;28;20148;-39
2022/03/31 01:05:02;;;;;;;55.85;43.22;;;13.60;95.70;;;;;;4974829;28;20110;-39
2022/03/31 01:07:28;;;;;;;58.10;39.15;;;13.60;95.10;;;;;;4974016;28;20440;-39
2022/03/31 01:09:57;;;;;;;51.95;38.83;;;13.50;95.20;;;;;;4974503;28;20110;-39
2022/03/31 01:12:23;;;;;;;51.88;38.22;;;13.70;94.80;;;;;;4973706;28;20400;-39
2022/03/31 01:15:10;;;;;;;51.30;38.17;;;13.70;94.50;;;;;;4973648;28;20031;-39
2022/03/31 01:17:39;;;;;;;48.28;36.85;;;13.70;95.60;;;;;;4971942;28;20073;-39
2022/03/31 01:20:08;;;;;;;50.00;38.08;;;13.60;95.10;;;;;;4974140;28;20019;-39
2022/03/31 01:22:35;;;;;;;50.25;39.03;;;13.60;95.10;;;;;;4974495;28;20034;-39
2022/03/31 01:25:03;;;;;;;53.92;40.58;;;13.60;95.30;;;;;;4974344;28;20031;-39
2022/03/31 01:27:29;;;;;;;59.70;43.85;;;13.70;95.40;;;;;;4972813;28;20034;-39
2022/03/31 01:29:54;;;;;;;63.85;44.50;;;13.60;96.50;;;;;;4957512;28;20026;-39
2022/03/31 01:32:21;;;;;;;60.15;42.33;;;13.60;96.30;;;;;;4973885;28;20042;-39
2022/03/31 01:35:08;;;;;;;57.70;41.15;;;13.40;97.90;;;;;;4973797;28;20353;-39
2022/03/31 01:37:34;;;;;;;50.85;40.15;;;13.40;99.60;;;;;;4973935;28;20022;-39
2022/03/31 01:40:00;;;;;;;58.78;41.33;;;13.30;99.30;;;;;;4973766;28;20157;-39
2022/03/31 01:42:27;;;;;;;51.83;38.95;;;13.20;99.90;;;;;;4973702;28;20030;-39
2022/03/31 01:44:54;;;;;;;50.85;35.38;;;13.20;99.90;;;;;;4973710;28;20037;-39
2022/03/31 01:54:42;;;;;;;48.75;33.85;;;13.30;99.90;;;;;;4960608;28;20062;-39
2022/03/31 01:57:08;;;;;;;53.35;37.10;;;13.20;99.90;;;;;;4992797;28;20452;-39
2022/03/31 01:59:36;;;;;;;52.72;36.13;;;13.00;99.90;;;;;;4980573;28;20418;-39
2022/03/31 02:02:02;;;;;;;53.00;36.05;;;13.00;99.90;;;;;;4973301;28;20097;-39
2022/03/31 02:04:28;;;;;;;43.55;32.05;;;12.90;99.90;;;;;;4973556;28;20054;-40
2022/03/31 02:06:54;;;;;;;46.75;32.88;;;12.80;99.90;;;;;;4974213;28;20511;-39
2022/03/31 02:09:20;;;;;;;48.97;33.83;;;12.90;99.90;;;;;;4973335;28;20035;-39
2022/03/31 02:11:46;;;;;;;47.75;31.58;;;12.90;99.90;;;;;;4973931;28;20042;-39
2022/03/31 02:14:13;;;;;;;43.97;31.23;;;12.90;99.90;;;;;;4972974;28;20023;-39
2022/03/31 02:16:38;;;;;;;43.83;31.10;;;12.80;99.90;;;;;;4973238;28;20038;-39
2022/03/31 02:19:04;;;;;;;41.25;29.58;;;12.70;99.90;;;;;;4971407;28;20495;-39
2022/03/31 02:21:30;;;;;;;36.30;28.77;;;12.60;99.90;;;;;;4973920;28;20515;-39
2022/03/31 02:23:56;;;;;;;42.42;28.52;;;12.50;99.90;;;;;;4972433;28;20205;-39
2022/03/31 02:26:21;;;;;;;40.42;29.30;;;12.50;99.90;;;;;;4972389;28;20615;-39
2022/03/31 02:28:47;;;;;;;35.35;27.92;;;12.60;99.90;;;;;;4971996;28;20030;-39
2022/03/31 02:31:13;;;;;;;36.90;27.92;;;12.70;99.90;;;;;;4972020;28;20090;-39
2022/03/31 02:33:39;;;;;;;39.17;28.45;;;12.60;99.90;;;;;;4972074;28;20388;-39
2022/03/31 02:36:07;;;;;;;35.35;27.88;;;12.80;99.90;;;;;;4972207;28;20042;-39
2022/03/31 02:38:34;;;;;;;37.70;27.17;;;12.80;99.90;;;;;;4971751;28;20030;-39
2022/03/31 02:41:00;;;;;;;38.50;27.50;;;12.90;99.90;;;;;;4973278;28;20034;-39
2022/03/31 02:43:26;;;;;;;36.63;27.10;;;12.90;99.90;;;;;;4972953;28;20027;-39
2022/03/31 02:45:52;;;;;;;31.33;25.17;;;12.80;99.90;;;;;;4973610;28;20102;-39
2022/03/31 02:48:17;;;;;;;35.30;24.92;;;12.90;99.90;;;;;;4973941;28;20031;-39
2022/03/31 02:50:43;;;;;;;36.30;26.60;;;12.90;99.90;;;;;;4972093;28;20026;-39
2022/03/31 02:55:53;;;;;;;29.13;23.58;;;12.50;99.90;;;;;;4958314;28;20135;-39
2022/03/31 02:58:19;;;;;;;30.52;23.45;;;12.50;99.90;;;;;;4973513;28;20050;-39
2022/03/31 03:00:44;;;;;;;30.98;24.10;;;12.60;99.90;;;;;;4972396;28;20540;-38
2022/03/31 03:03:11;;;;;;;34.58;25.40;;;12.60;99.90;;;;;;4973061;28;20041;-38
2022/03/31 03:05:37;;;;;;;28.38;23.13;;;12.60;99.90;;;;;;4972239;28;20106;-39
2022/03/31 03:08:02;;;;;;;35.55;25.05;;;12.60;99.90;;;;;;4973264;28;20034;-38
2022/03/31 03:10:28;;;;;;;34.22;26.05;;;12.70;99.90;;;;;;4972200;28;20043;-39
2022/03/31 03:12:57;;;;;;;39.20;26.95;;;12.80;99.90;;;;;;4973012;28;20098;-38
2022/03/31 03:15:25;;;;;;;36.30;25.20;;;12.90;99.90;;;;;;4972334;28;20154;-39
2022/03/31 03:17:50;;;;;;;33.50;25.45;;;12.90;99.90;;;;;;4955590;28;20035;-38
2022/03/31 03:20:17;;;;;;;36.83;25.15;;;12.90;99.90;;;;;;4972010;28;20058;-38
2022/03/31 03:22:43;;;;;;;33.80;23.92;;;12.90;99.90;;;;;;4973104;28;20106;-38
2022/03/31 03:25:09;;;;;;;29.25;23.52;;;13.00;99.90;;;;;;4972437;28;20444;-39
2022/03/31 03:27:35;;;;;;;32.70;24.85;;;13.00;99.90;;;;;;4955725;28;20023;-39
2022/03/31 03:30:01;;;;;;;33.92;23.75;;;12.90;99.90;;;;;;4972207;28;20038;-38
2022/03/31 03:32:27;;;;;;;33.35;22.98;;;13.00;99.90;;;;;;4973014;28;20114;-39
2022/03/31 03:41:38;;;;;;;30.73;20.58;;;12.60;99.90;;;;;;4979290;28;20344;-39
2022/03/31 03:44:05;;;;;;;29.42;18.55;;;12.40;99.90;;;;;;4971833;28;20027;-39
2022/03/31 03:46:30;;;;;;;30.90;19.60;;;12.30;99.90;;;;;;4972008;28;20033;-38
2022/03/31 03:56:31;;;;;;;26.20;18.27;;;12.40;99.90;;;;;;4964342;28;20065;-38
2022/03/31 03:58:57;;;;;;;25.65;18.13;;;12.30;99.90;;;;;;4971477;28;20043;-39
2022/03/31 04:01:23;;;;;;;28.48;19.52;;;12.30;99.90;;;;;;4972181;28;20031;-38
2022/03/31 04:03:48;;;;;;;27.30;18.48;;;12.30;99.90;;;;;;4974356;28;20046;-38
2022/03/31 04:06:14;;;;;;;25.00;17.83;;;12.40;99.90;;;;;;4976250;28;20027;-38
2022/03/31 04:08:39;;;;;;;25.02;18.05;;;12.50;99.90;;;;;;4974032;28;20031;-38
2022/03/31 04:11:06;;;;;;;30.20;17.05;;;12.50;99.90;;;;;;4976101;28;20405;-38
2022/03/31 04:13:31;;;;;;;29.77;17.23;;;12.40;99.90;;;;;;4975169;28;20023;-39
2022/03/31 04:15:57;;;;;;;26.65;17.48;;;12.50;99.90;;;;;;4976026;28;20117;-38
2022/03/31 04:18:22;;;;;;;29.38;17.33;;;12.50;99.90;;;;;;4975199;28;20031;-38
2022/03/31 04:20:48;;;;;;;24.13;16.70;;;12.30;99.90;;;;;;4975928;28;20488;-38
2022/03/31 04:23:14;;;;;;;31.73;18.75;;;12.40;99.90;;;;;;4975323;28;20089;-38
2022/03/31 04:25:39;;;;;;;24.95;17.60;;;12.40;99.90;;;;;;4975773;28;20030;-38
2022/03/31 04:28:06;;;;;;;26.38;18.77;;;12.40;99.90;;;;;;4957609;28;20065;-38
2022/03/31 04:33:55;;;;;;;33.08;18.52;;;12.30;99.90;;;;;;4975434;28;20046;-39
2022/03/31 04:36:21;;;;;;;30.48;19.33;;;12.10;99.90;;;;;;4974784;28;20027;-38
2022/03/31 04:38:46;;;;;;;30.67;20.70;;;12.20;99.90;;;;;;4974838;28;20058;-38
2022/03/31 04:41:12;;;;;;;31.00;20.77;;;12.10;99.90;;;;;;4975600;28;20027;-38
2022/03/31 04:43:39;;;;;;;33.40;21.00;;;12.10;99.90;;;;;;4974564;28;20039;-39
2022/03/31 04:46:04;;;;;;;40.28;21.75;;;12.00;99.90;;;;;;4975490;28;20073;-39
2022/03/31 04:48:32;;;;;;;37.38;21.65;;;11.80;99.90;;;;;;4971503;28;20051;-39
2022/03/31 04:50:58;;;;;;;35.10;21.60;;;11.70;99.90;;;;;;4975209;28;20484;-39
2022/03/31 04:53:24;;;;;;;35.10;21.42;;;11.60;99.90;;;;;;4974535;28;20081;-39
2022/03/31 04:55:50;;;;;;;36.00;22.58;;;11.70;99.90;;;;;;4975466;28;20034;-38
2022/03/31 04:58:16;;;;;;;39.35;22.20;;;11.90;99.90;;;;;;4974266;28;20062;-39
2022/03/31 05:00:41;;;;;;;36.63;23.25;;;11.80;99.90;;;;;;4975339;28;20034;-39
2022/03/31 05:03:07;;;;;;;39.30;24.27;;;11.90;99.90;;;;;;4974823;28;20027;-39
2022/03/31 05:05:33;;;;;;;41.22;23.50;;;12.00;99.90;;;;;;4974974;28;20135;-39
2022/03/31 05:07:58;;;;;;;32.55;21.50;;;12.00;99.90;;;;;;4975088;28;20393;-39
2022/03/31 05:10:24;;;;;;;37.65;23.30;;;12.00;99.90;;;;;;4974344;28;20445;-39
2022/03/31 05:12:50;;;;;;;35.78;24.48;;;12.00;99.90;;;;;;4989599;28;20169;-39
2022/03/31 05:15:16;;;;;;;34.20;23.40;;;12.00;99.90;;;;;;4975880;28;20410;-39
2022/03/31 05:17:41;;;;;;;38.67;23.90;;;12.00;99.90;;;;;;4974173;28;20141;-38
2022/03/31 05:20:09;;;;;;;39.75;25.13;;;11.90;99.90;;;;;;4956607;28;20090;-39
2022/03/31 05:22:36;;;;;;;39.17;25.88;;;11.80;99.90;;;;;;4975136;28;20027;-39
2022/03/31 05:25:04;;;;;;;35.00;21.67;;;12.00;99.90;;;;;;4973886;28;20109;-39
2022/03/31 05:27:30;;;;;;;37.65;21.17;;;11.90;99.90;;;;;;4974762;28;20041;-39
2022/03/31 05:29:57;;;;;;;30.40;21.45;;;11.70;99.90;;;;;;4956373;28;20058;-39
2022/03/31 05:32:23;;;;;;;36.17;21.70;;;11.80;99.90;;;;;;4974593;28;20045;-39
2022/03/31 05:34:49;;;;;;;26.00;18.90;;;11.90;99.90;;;;;;4973726;28;20019;-39
2022/03/31 05:37:15;;;;;;;27.77;19.00;;;11.90;99.90;;;;;;4974594;28;20037;-39
2022/03/31 05:39:40;;;;;;;33.35;18.98;;;12.00;99.90;;;;;;4956375;28;20074;-39
2022/03/31 05:42:06;;;;;;;28.73;20.83;;;12.10;99.90;;;;;;4973203;28;20038;-39
2022/03/31 05:44:32;;;;;;;25.75;18.08;;;12.00;99.90;;;;;;4973535;28;20480;-39
2022/03/31 05:46:59;;;;;;;29.52;19.25;;;12.10;99.90;;;;;;4974426;28;20109;-39
2022/03/31 05:49:24;;;;;;;30.60;18.70;;;12.30;99.90;;;;;;4972275;28;20030;-39
2022/03/31 05:51:50;;;;;;;31.50;18.85;;;12.30;99.90;;;;;;4974210;28;20503;-39
2022/03/31 05:54:16;;;;;;;29.42;18.90;;;12.30;99.90;;;;;;4973867;28;20031;-39
2022/03/31 05:56:43;;;;;;;28.95;19.67;;;12.20;99.90;;;;;;4973956;28;20114;-39
2022/03/31 05:59:09;;;;;;;33.05;20.48;;;12.30;99.90;;;;;;4971992;28;20385;-39
2022/03/31 06:01:34;;;;;;;33.00;22.30;;;12.40;99.90;;;;;;4974216;28;20022;-39
2022/03/31 06:04:00;;;;;;;27.95;19.10;;;12.40;99.90;;;;;;4973302;28;20030;-39
2022/03/31 06:06:26;;;;;;;27.52;18.70;;;12.30;99.90;;;;;;4974106;28;20030;-39
2022/03/31 06:08:52;;;;;;;28.02;19.42;;;12.40;99.90;;;;;;4955777;28;20050;-39
2022/03/31 06:11:18;;;;;;;26.25;20.33;;;12.40;99.90;;;;;;4973849;28;20035;-39
2022/03/31 06:13:43;;;;;;;37.05;22.23;;;12.40;99.90;;;;;;4972539;28;20034;-39
2022/03/31 06:16:11;;;;;;;28.98;20.88;;;12.30;99.90;;;;;;4973989;28;20373;-38
2022/03/31 06:18:37;;;;;;;31.67;21.63;;;12.40;99.90;;;;;;4973646;28;20473;-38
2022/03/31 06:21:03;;;;;;;28.38;20.92;;;12.40;99.90;;;;;;4974097;28;20026;-39
2022/03/31 06:23:29;;;;;;;25.15;15.38;;;12.40;99.90;;;;;;4974103;28;20031;-38
2022/03/31 06:25:55;;;;;;;23.40;15.25;;;12.30;99.90;;;;;;4972244;28;20031;-39
2022/03/31 06:28:21;;;;;;;26.65;16.45;;;12.30;99.90;;;;;;4973591;28;20039;-39
2022/03/31 06:30:49;;;;;;;24.80;16.05;;;12.40;99.90;;;;;;4972958;28;20405;-39
2022/03/31 06:33:19;;;;;;;24.05;16.55;;;12.30;99.90;;;;;;4972325;28;20042;-38
2022/03/31 06:35:45;;;;;;;20.63;14.20;;;12.40;99.90;;;;;;4972692;28;20023;-39
2022/03/31 06:38:11;;;;;;;22.83;13.85;;;12.20;99.90;;;;;;4972901;28;20053;-38
2022/03/31 06:40:38;;;;;;;21.10;14.50;;;12.20;99.90;;;;;;4955438;28;20034;-39
2022/03/31 06:43:04;;;;;;;26.17;15.63;;;12.30;99.90;;;;;;4972562;28;20062;-39
2022/03/31 06:45:31;;;;;;;24.02;16.98;;;12.30;99.90;;;;;;4971032;28;20517;-38
2022/03/31 06:47:58;;;;;;;25.60;15.82;;;12.40;99.90;;;;;;4973232;28;20031;-39
2022/03/31 06:50:24;;;;;;;23.95;18.23;;;12.50;99.90;;;;;;4971117;28;20035;-39
2022/03/31 06:52:50;;;;;;;26.55;17.42;;;12.50;99.90;;;;;;4973155;28;20093;-38
2022/03/31 06:55:16;;;;;;;24.55;18.48;;;12.40;99.90;;;;;;4970979;28;20031;-39
2022/03/31 06:57:42;;;;;;;27.25;17.73;;;12.50;99.90;;;;;;4973038;28;20073;-39
2022/03/31 07:00:08;;;;;;;28.38;18.42;;;12.50;99.90;;;;;;4972498;28;20027;-39
2022/03/31 07:02:34;;;;;;;25.15;18.73;;;12.70;99.90;;;;;;4972821;28;20526;-39
2022/03/31 07:05:00;;;;;;;25.40;16.85;;;12.70;99.90;;;;;;4972000;28;20038;-39
2022/03/31 07:07:25;;;;;;;24.35;16.80;;;12.70;99.90;;;;;;4972718;28;20112;-38
2022/03/31 07:09:51;;;;;;;27.52;18.30;;;12.70;99.90;;;;;;4955123;28;20069;-38
2022/03/31 07:12:17;;;;;;;24.33;16.67;;;12.80;99.90;;;;;;4970447;28;20038;-39
2022/03/31 07:14:44;;;;;;;23.33;15.68;;;12.90;99.90;;;;;;4972250;28;20037;-39
2022/03/31 07:17:10;;;;;;;24.70;16.70;;;12.80;98.30;;;;;;4972834;28;20117;-39
2022/03/31 07:19:35;;;;;;;19.98;14.60;;;12.90;99.90;;;;;;4972077;28;20034;-39
2022/03/31 07:22:02;;;;;;;18.85;11.27;;;13.00;99.90;;;;;;4955839;28;20031;-39
2022/03/31 07:24:27;;;;;;;19.85;11.32;;;13.00;93.60;;;;;;4972217;28;20034;-39
2022/03/31 07:26:53;;;;;;;14.45;10.02;;;12.90;94.20;;;;;;4955677;28;20029;-39
2022/03/31 07:29:19;;;;;;;13.77;9.30;;;12.90;95.70;;;;;;4972453;28;20027;-39
2022/03/31 07:31:45;;;;;;;13.68;8.52;;;13.00;95.00;;;;;;4973139;28;20035;-39
2022/03/31 07:34:10;;;;;;;16.35;10.32;;;12.90;93.80;;;;;;4972206;28;20086;-39
2022/03/31 07:36:36;;;;;;;17.80;11.82;;;13.00;94.30;;;;;;4954788;28;20069;-39
2022/03/31 07:39:02;;;;;;;23.55;13.73;;;13.10;94.00;;;;;;4955503;28;20030;-39
2022/03/31 07:41:28;;;;;;;20.00;13.30;;;13.20;93.10;;;;;;4974696;28;20030;-39
2022/03/31 07:43:54;;;;;;;19.17;13.80;;;13.10;93.40;;;;;;4976557;28;20081;-39
2022/03/31 07:46:20;;;;;;;18.73;13.63;;;13.10;93.50;;;;;;4976086;28;20085;-39
2022/03/31 07:48:45;;;;;;;20.15;13.18;;;13.10;92.70;;;;;;4976370;28;20038;-39
2022/03/31 07:51:11;;;;;;;24.38;16.17;;;13.10;93.30;;;;;;4974054;28;20049;-39
2022/03/31 07:53:38;;;;;;;21.15;14.60;;;13.20;91.20;;;;;;4974614;28;20519;-39
2022/03/31 07:56:04;;;;;;;21.35;14.75;;;13.10;92.10;;;;;;4973969;28;20114;-39
2022/03/31 07:58:30;;;;;;;21.58;13.25;;;13.20;93.50;;;;;;4973470;28;20563;-39
2022/03/31 08:00:56;;;;;;;22.75;14.98;;;13.30;91.80;;;;;;4974788;28;20114;-39
2022/03/31 08:03:25;;;;;;;28.38;18.20;;;13.40;94.30;;;;;;4973821;28;20029;-39
2022/03/31 08:05:51;;;;;;;28.10;19.48;;;13.30;90.80;;;;;;4973678;28;20057;-39
2022/03/31 08:08:19;;;;;;;21.60;15.40;;;13.30;94.00;;;;;;4974839;28;20027;-38
2022/03/31 08:10:45;;;;;;;20.95;15.35;;;13.40;92.80;;;;;;4975704;28;20097;-38
2022/03/31 08:13:10;;;;;;;22.17;15.10;;;13.50;91.50;;;;;;4975321;28;20496;-38
2022/03/31 08:15:37;;;;;;;20.63;14.52;;;13.50;92.40;;;;;;4975301;28;20034;-39
2022/03/31 08:18:03;;;;;;;20.63;14.82;;;13.30;90.50;;;;;;4976172;28;20031;-39
2022/03/31 08:20:29;;;;;;;20.95;15.18;;;13.50;92.30;;;;;;4958388;28;20046;-38
2022/03/31 08:22:55;;;;;;;23.42;15.90;;;13.50;91.40;;;;;;4958558;28;20464;-39
2022/03/31 08:25:21;;;;;;;21.27;14.20;;;13.50;90.70;;;;;;4974951;28;20030;-39
2022/03/31 08:28:06;;;;;;;19.15;14.07;;;13.60;90.40;;;;;;4975104;28;20471;-39
2022/03/31 08:30:31;;;;;;;20.98;14.38;;;13.60;89.50;;;;;;4975143;28;20469;-38
2022/03/31 08:32:57;;;;;;;21.70;13.43;;;13.70;89.50;;;;;;4989483;28;20125;-39
2022/03/31 08:35:27;;;;;;;21.23;13.20;;;13.70;88.50;;;;;;4974138;28;20034;-39
2022/03/31 08:37:53;;;;;;;20.02;12.13;;;13.70;87.90;;;;;;4973209;28;20035;-39
2022/03/31 08:40:18;;;;;;;18.50;12.75;;;13.60;90.10;;;;;;4974880;28;20038;-39
2022/03/31 08:42:44;;;;;;;15.27;10.82;;;13.70;90.10;;;;;;4975502;28;20027;-39
2022/03/31 08:45:17;;;;;;;19.13;12.18;;;13.90;89.10;;;;;;4974685;28;20033;-39
2022/03/31 08:47:44;;;;;;;19.73;12.23;;;13.90;86.20;;;;;;4975234;28;20026;-38
2022/03/31 08:50:11;;;;;;;14.25;10.73;;;13.90;85.90;;;;;;4974107;28;20102;-39
2022/03/31 08:52:37;;;;;;;17.98;11.00;;;13.90;84.80;;;;;;4957888;28;20064;-39
2022/03/31 08:55:05;;;;;;;17.95;11.05;;;14.10;84.00;;;;;;4974556;28;20037;-38
2022/03/31 08:57:40;;;;;;;18.65;10.45;;;14.20;86.20;;;;;;4975199;28;20058;-38
2022/03/31 09:00:07;;;;;;;18.25;11.10;;;13.90;79.50;;;;;;4973892;28;20505;-39
2022/03/31 09:02:33;;;;;;;16.67;11.13;;;13.90;85.90;;;;;;4973851;28;20034;-39
2022/03/31 09:05:04;;;;;;;17.10;11.38;;;14.10;78.30;;;;;;4973793;28;20041;-39
2022/03/31 09:07:30;;;;;;;24.92;13.38;;;14.20;85.30;;;;;;4975338;28;20031;-39
2022/03/31 09:09:56;;;;;;;18.05;11.20;;;14.30;84.80;;;;;;4974553;28;20117;-38
2022/03/31 09:12:26;;;;;;;19.30;11.88;;;14.30;82.20;;;;;;4974801;28;20463;-38
2022/03/31 09:14:54;;;;;;;20.17;12.55;;;;;;;;;;4972988;28;20053;-39
2022/03/31 09:17:20;;;;;;;18.63;11.85;;;14.50;80.40;;;;;;4974982;28;20461;-39
2022/03/31 09:19:46;;;;;;;15.32;12.65;;;14.00;81.10;;;;;;4972703;28;20034;-39
2022/03/31 09:22:11;;;;;;;20.25;12.20;;;14.40;83.40;;;;;;4974806;28;20054;-39
2022/03/31 09:24:37;;;;;;;19.13;13.32;;;14.50;80.00;;;;;;4974575;28;20044;-39
2022/03/31 09:27:04;;;;;;;18.23;13.32;;;14.50;75.20;;;;;;4974525;28;20039;-39
2022/03/31 09:29:31;;;;;;;21.88;13.73;;;14.60;80.50;;;;;;4974608;28;20041;-39
2022/03/31 09:32:07;;;;;;;22.45;13.82;;;14.40;77.10;;;;;;4973828;28;20149;-39
2022/03/31 09:34:39;;;;;;;20.42;14.63;;;14.40;78.40;;;;;;4965404;28;20436;-39
2022/03/31 09:37:04;;;;;;;22.08;14.95;;;14.40;74.90;;;;;;4974263;28;20148;-39
2022/03/31 09:39:30;;;;;;;20.35;15.38;;;14.30;77.80;;;;;;4974483;28;20492;-39
2022/03/31 09:41:57;;;;;;;21.27;15.77;;;14.60;80.50;;;;;;4973554;28;20485;-39
2022/03/31 09:44:23;;;;;;;20.50;15.02;;;14.60;78.40;;;;;;4974266;28;20027;-39
2022/03/31 09:46:50;;;;;;;24.10;14.80;;;14.90;77.60;;;;;;4970849;28;20465;-39
2022/03/31 09:49:24;;;;;;;22.40;15.45;;;14.70;76.10;;;;;;4974293;28;20034;-39
2022/03/31 09:51:52;;;;;;;23.33;15.60;;;14.80;78.30;;;;;;4973475;28;20038;-39
2022/03/31 09:54:19;;;;;;;22.45;16.17;;;14.70;73.00;;;;;;4972892;28;20333;-39
2022/03/31 09:56:45;;;;;;;25.73;17.48;;;14.80;71.30;;;;;;4973332;28;20035;-39
2022/03/31 09:59:13;;;;;;;24.83;15.88;;;14.80;80.10;;;;;;4973504;28;20034;-39
2022/03/31 10:01:40;;;;;;;23.92;17.35;;;14.70;75.60;;;;;;4970204;28;20026;-39
2022/03/31 10:04:08;;;;;;;22.35;15.77;;;14.90;77.50;;;;;;4973655;28;20027;-39
2022/03/31 10:06:35;;;;;;;20.67;15.95;;;14.90;73.90;;;;;;4973320;28;20086;-39
2022/03/31 10:09:03;;;;;;;25.67;17.88;;;15.00;76.60;;;;;;4972135;28;20030;-39
2022/03/31 10:11:31;;;;;;;24.65;17.75;;;14.90;75.00;;;;;;4973155;28;20039;-39
2022/03/31 10:14:16;;;;;;;27.90;18.27;;;14.80;75.70;;;;;;4974102;28;20477;-39
2022/03/31 10:16:54;;;;;;;27.33;17.33;;;14.90;73.30;;;;;;4973408;28;20401;-39
2022/03/31 10:19:35;;;;;;;23.58;16.27;;;14.90;71.60;;;;;;4973773;28;20062;-39
2022/03/31 10:22:03;;;;;;;25.55;17.15;;;14.90;73.20;;;;;;4972995;28;20034;-39
2022/03/31 10:24:41;;;;;;;29.13;18.80;;;14.90;75.00;;;;;;4971521;28;20031;-39
2022/03/31 10:27:08;;;;;;;27.75;18.65;;;14.90;74.80;;;;;;4972140;28;20031;-39
2022/03/31 10:29:40;;;;;;;23.30;16.33;;;15.00;71.40;;;;;;4954297;28;20023;-39
2022/03/31 10:32:23;;;;;;;28.20;17.98;;;14.60;71.60;;;;;;4968811;28;20126;-39
2022/03/31 10:34:51;;;;;;;25.83;16.33;;;14.90;73.00;;;;;;4972023;28;20130;-39
2022/03/31 10:37:31;;;;;;;21.58;17.48;;;15.00;70.40;;;;;;4971483;28;20050;-39
2022/03/31 10:39:56;;;;;;;20.95;17.05;;;15.10;69.70;;;;;;4972056;28;20524;-39
2022/03/31 10:42:23;;;;;;;26.73;16.15;;;15.50;71.70;;;;;;4972096;28;20110;-39
2022/03/31 10:45:13;;;;;;;27.42;18.02;;;15.70;66.40;;;;;;4972380;28;20027;-39
2022/03/31 10:47:41;;;;;;;30.85;18.30;;;15.80;63.30;;;;;;4973542;28;20464;-39
2022/03/31 10:50:33;;;;;;;25.02;16.88;;;15.90;61.70;;;;;;4972605;28;20042;-39
2022/03/31 10:53:02;;;;;;;24.27;17.50;;;15.60;64.70;;;;;;4967067;28;20070;-39
2022/03/31 10:55:40;;;;;;;23.63;18.10;;;15.60;66.40;;;;;;4972691;28;20401;-40
2022/03/31 10:58:18;;;;;;;23.90;18.00;;;15.50;58.20;;;;;;4970875;28;20046;-43
2022/03/31 11:00:43;;;;;;;21.83;17.10;;;15.60;59.70;;;;;;4972093;28;20034;-39
2022/03/31 11:03:10;;;;;;;24.25;17.52;;;15.70;62.70;;;;;;4971058;28;20101;-39
2022/03/31 11:05:38;;;;;;;24.38;16.83;;;15.50;61.60;;;;;;4971635;28;20461;-38
2022/03/31 11:08:07;;;;;;;26.33;19.02;;;15.30;61.50;;;;;;4972409;28;20118;-46
2022/03/31 11:10:46;;;;;;;29.70;18.73;;;15.60;63.60;;;;;;4970843;28;20114;-39
2022/03/31 11:13:14;;;;;;;25.27;17.33;;;15.70;60.30;;;;;;4972549;28;20396;-39
2022/03/31 11:15:40;;;;;;;28.13;19.77;;;15.90;61.50;;;;;;4972218;28;20035;-40
2022/03/31 11:18:06;;;;;;;26.48;17.83;;;15.90;60.40;;;;;;4973049;28;20030;-40
2022/03/31 11:20:31;;;;;;;26.33;17.80;;;16.10;57.50;;;;;;4972419;28;20027;-39
2022/03/31 11:23:03;;;;;;;33.80;20.77;;;16.00;57.90;;;;;;4973116;28;20027;-39
2022/03/31 11:25:29;;;;;;;26.75;18.73;;;15.90;54.30;;;;;;4953955;28;20034;-39
2022/03/31 11:27:58;;;;;;;23.23;17.80;;;15.80;57.40;;;;;;4972922;28;20054;-40
2022/03/31 11:30:30;;;;;;;27.10;18.85;;;16.10;59.60;;;;;;4971168;28;20027;-39
2022/03/31 11:32:56;;;;;;;24.65;17.67;;;16.10;58.70;;;;;;4972904;28;20047;-39
2022/03/31 11:35:25;;;;;;;28.92;18.75;;;16.10;56.30;;;;;;4973001;28;20387;-39
2022/03/31 11:38:02;;;;;;;26.23;17.98;;;16.10;54.60;;;;;;4972489;28;20049;-39
2022/03/31 11:40:33;;;;;;;25.55;18.05;;;16.00;53.90;;;;;;4972346;28;20525;-39
2022/03/31 11:43:02;;;;;;;25.80;18.52;;;16.10;57.00;;;;;;4973034;28;20035;-39
2022/03/31 11:45:34;;;;;;;24.67;18.42;;;16.20;54.10;;;;;;4972523;28;20042;-39
2022/03/31 11:48:03;;;;;;;26.77;18.25;;;;;;;;;;4953502;29;20031;-39
2022/03/31 11:50:31;;;;;;;23.33;17.23;;;16.50;51.60;;;;;;4955291;28;20109;-39
2022/03/31 11:52:58;;;;;;;22.70;16.88;;;16.50;45.90;;;;;;4971748;28;20035;-39
2022/03/31 11:55:24;;;;;;;19.83;15.60;;;16.40;52.30;;;;;;4971544;28;20027;-39
2022/03/31 11:58:00;;;;;;;19.83;14.65;;;16.20;47.00;;;;;;4971727;28;20146;-39
2022/03/31 12:00:30;;;;;;;21.63;15.93;;;16.10;47.60;;;;;;4971351;28;20027;-39
2022/03/31 12:02:56;;;;;;;22.52;15.75;;;15.90;48.00;;;;;;4972302;28;20065;-39
2022/03/31 12:05:22;;;;;;;19.63;15.73;;;16.20;49.00;;;;;;4972491;28;20037;-39
2022/03/31 12:07:50;;;;;;;20.75;15.57;;;16.50;48.70;;;;;;4971996;28;20027;-39
2022/03/31 12:10:15;;;;;;;18.98;14.70;;;16.60;42.40;;;;;;4972585;28;20034;-39
2022/03/31 12:12:49;;;;;;;18.60;15.07;;;16.80;45.50;;;;;;4971821;28;20050;-39
2022/03/31 12:15:26;;;;;;;19.25;15.30;;;17.00;45.10;;;;;;4972758;28;20031;-39
2022/03/31 12:18:08;;;;;;;20.02;14.60;;;17.00;40.60;;;;;;4968970;28;20038;-39
2022/03/31 12:20:39;;;;;;;16.50;13.95;;;17.40;37.90;;;;;;4971704;28;20490;-39
2022/03/31 12:23:18;;;;;;;20.15;15.48;;;17.70;35.90;;;;;;4970408;28;20023;-39
2022/03/31 12:25:44;;;;;;;16.40;14.35;;;17.80;34.90;;;;;;4975442;28;20031;-39
2022/03/31 12:28:09;;;;;;;15.23;13.00;;;18.50;30.00;;;;;;4975857;28;20109;-39
2022/03/31 12:30:40;;;;;;;22.00;15.82;;;19.90;32.20;;;;;;4975822;28;20027;-39
2022/03/31 12:33:19;;;;;;;21.42;16.75;;;21.00;24.40;;;;;;4958114;28;20049;-40
2022/03/31 12:35:57;;;;;;;16.92;14.07;;;19.70;21.40;;;;;;4974841;28;20117;-40
2022/03/31 12:38:42;;;;;;;19.98;14.15;;;19.50;25.80;;;;;;4972185;28;20574;-39
2022/03/31 12:41:34;;;;;;;17.42;13.77;;;20.90;21.90;;;;;;4975023;28;20030;-40
2022/03/31 12:44:00;;;;;;;19.45;13.60;;;20.80;16.70;;;;;;4974242;28;20081;-39
2022/03/31 12:46:28;;;;;;;16.27;12.40;;;20.60;22.10;;;;;;4974790;28;20027;-40
2022/03/31 12:49:08;;;;;;;16.52;13.85;;;19.90;17.90;;;;;;4975621;28;20508;-40
2022/03/31 12:51:42;;;;;;;19.40;14.75;;;25.40;15.10;;;;;;4974626;28;20035;-39
2022/03/31 12:54:40;;;;;;;16.38;13.82;;;31.10;3.20;;;;;;4958121;28;20027;-40
2022/03/31 12:57:17;;;;;;;16.60;14.02;;;;;;;;;;4973950;28;20136;-41
2022/03/31 12:59:55;;;;;;;14.95;13.32;;;35.90;1.00;;;;;;4975736;28;20094;-40